sensor_id;sensor_type;location;lat;lon;timestamp;temperature;humidity
843;DHT22;407;48.884;9.126;2023-01-05T00:01:45;10.70;99.90
843;DHT22;407;48.884;9.126;2023-01-05T00:04:11;10.70;99.90
843;DHT22;407;48.884;9.126;2023-01-05T00:06:37;10.70;99.90
843;DHT22;407;48.884;9.126;2023-01-05T00:09:05;10.70;99.90
843;DHT22;407;48.884;9.126;2023-01-05T00:11:31;10.70;1.00
843;DHT22;407;48.884;9.126;2023-01-05T00:14:18;10.80;1.00
843;DHT22;407;48.884;9.126;2023-01-05T00:17:03;10.90;1.00
843;DHT22;407;48.884;9.126;2023-01-05T00:19:48;10.90;1.00
843;DHT22;407;48.884;9.126;2023-01-05T00:22:35;11.00;1.00
843;DHT22;407;48.884;9.126;2023-01-05T00:25:06;11.10;1.00
843;DHT22;407;48.884;9.126;2023-01-05T00:27:32;11.00;1.00
843;DHT22;407;48.884;9.126;2023-01-05T00:29:58;11.00;1.00
843;DHT22;407;48.884;9.126;2023-01-05T00:32:25;10.90;1.00
843;DHT22;407;48.884;9.126;2023-01-05T00:34:52;10.90;1.00
843;DHT22;407;48.884;9.126;2023-01-05T00:37:23;10.90;1.00
843;DHT22;407;48.884;9.126;2023-01-05T00:39:49;10.90;1.00
843;DHT22;407;48.884;9.126;2023-01-05T00:42:15;11.10;1.00
843;DHT22;407;48.884;9.126;2023-01-05T00:44:41;11.00;1.00
843;DHT22;407;48.884;9.126;2023-01-05T00:47:06;11.00;1.00
843;DHT22;407;48.884;9.126;2023-01-05T00:49:32;11.00;1.00
843;DHT22;407;48.884;9.126;2023-01-05T00:51:58;10.90;1.00
843;DHT22;407;48.884;9.126;2023-01-05T00:54:23;11.00;1.00
843;DHT22;407;48.884;9.126;2023-01-05T00:56:49;11.00;1.00
843;DHT22;407;48.884;9.126;2023-01-05T00:59:15;11.20;1.00
843;DHT22;407;48.884;9.126;2023-01-05T01:01:44;11.10;1.00
843;DHT22;407;48.884;9.126;2023-01-05T01:04:09;11.10;1.00
843;DHT22;407;48.884;9.126;2023-01-05T01:06:35;11.50;1.00
843;DHT22;407;48.884;9.126;2023-01-05T01:09:00;11.10;1.00
843;DHT22;407;48.884;9.126;2023-01-05T01:11:26;11.00;1.00
843;DHT22;407;48.884;9.126;2023-01-05T01:13:52;11.00;1.00
843;DHT22;407;48.884;9.126;2023-01-05T01:16:17;11.00;1.00
843;DHT22;407;48.884;9.126;2023-01-05T01:18:43;11.10;1.00
843;DHT22;407;48.884;9.126;2023-01-05T01:21:08;11.10;1.00
843;DHT22;407;48.884;9.126;2023-01-05T01:23:35;11.10;1.00
843;DHT22;407;48.884;9.126;2023-01-05T01:26:09;11.10;1.00
843;DHT22;407;48.884;9.126;2023-01-05T01:28:35;11.10;1.00
843;DHT22;407;48.884;9.126;2023-01-05T01:31:01;11.10;93.50
843;DHT22;407;48.884;9.126;2023-01-05T01:33:28;11.10;1.00
843;DHT22;407;48.884;9.126;2023-01-05T01:35:54;11.20;1.00
843;DHT22;407;48.884;9.126;2023-01-05T01:38:20;11.20;1.00
843;DHT22;407;48.884;9.126;2023-01-05T01:40:46;11.20;1.00
843;DHT22;407;48.884;9.126;2023-01-05T01:43:17;11.20;1.40
843;DHT22;407;48.884;9.126;2023-01-05T01:45:43;11.30;1.00
843;DHT22;407;48.884;9.126;2023-01-05T01:48:13;11.20;1.00
843;DHT22;407;48.884;9.126;2023-01-05T01:50:47;11.20;1.00
843;DHT22;407;48.884;9.126;2023-01-05T01:53:21;11.20;99.90
843;DHT22;407;48.884;9.126;2023-01-05T01:55:50;11.10;99.90
843;DHT22;407;48.884;9.126;2023-01-05T01:58:18;11.20;99.90
843;DHT22;407;48.884;9.126;2023-01-05T02:00:44;11.30;1.00
843;DHT22;407;48.884;9.126;2023-01-05T02:03:11;11.40;1.00
843;DHT22;407;48.884;9.126;2023-01-05T02:05:37;11.30;1.00
843;DHT22;407;48.884;9.126;2023-01-05T02:08:09;11.20;1.00
843;DHT22;407;48.884;9.126;2023-01-05T02:13:38;11.30;1.00
843;DHT22;407;48.884;9.126;2023-01-05T02:19:13;11.40;1.00
843;DHT22;407;48.884;9.126;2023-01-05T02:36:14;11.50;1.00
843;DHT22;407;48.884;9.126;2023-01-05T02:41:23;11.60;99.90
843;DHT22;407;48.884;9.126;2023-01-05T02:43:50;11.60;99.90
843;DHT22;407;48.884;9.126;2023-01-05T02:46:16;11.60;99.90
843;DHT22;407;48.884;9.126;2023-01-05T02:48:43;11.60;1.00
843;DHT22;407;48.884;9.126;2023-01-05T02:51:15;11.50;99.90
843;DHT22;407;48.884;9.126;2023-01-05T02:53:47;11.60;99.90
843;DHT22;407;48.884;9.126;2023-01-05T02:56:26;11.70;99.90
843;DHT22;407;48.884;9.126;2023-01-05T02:59:18;11.70;99.90
843;DHT22;407;48.884;9.126;2023-01-05T03:01:50;11.70;99.90
843;DHT22;407;48.884;9.126;2023-01-05T03:04:22;11.80;99.90
843;DHT22;407;48.884;9.126;2023-01-05T03:07:10;11.90;1.00
843;DHT22;407;48.884;9.126;2023-01-05T03:09:38;11.90;99.90
843;DHT22;407;48.884;9.126;2023-01-05T03:12:25;11.90;1.00
843;DHT22;407;48.884;9.126;2023-01-05T03:15:16;12.00;99.90
843;DHT22;407;48.884;9.126;2023-01-05T03:17:57;12.00;99.90
843;DHT22;407;48.884;9.126;2023-01-05T03:20:28;11.90;1.00
843;DHT22;407;48.884;9.126;2023-01-05T03:22:57;11.80;99.90
843;DHT22;407;48.884;9.126;2023-01-05T03:25:42;11.80;99.90
843;DHT22;407;48.884;9.126;2023-01-05T03:28:31;11.90;99.90
843;DHT22;407;48.884;9.126;2023-01-05T03:31:23;11.90;1.00
843;DHT22;407;48.884;9.126;2023-01-05T03:37:24;12.00;1.00
843;DHT22;407;48.884;9.126;2023-01-05T03:39:50;11.90;99.90
843;DHT22;407;48.884;9.126;2023-01-05T03:42:16;12.20;1.00
843;DHT22;407;48.884;9.126;2023-01-05T03:44:44;12.30;1.00
843;DHT22;407;48.884;9.126;2023-01-05T03:47:11;12.40;99.90
843;DHT22;407;48.884;9.126;2023-01-05T03:49:36;12.50;99.90
843;DHT22;407;48.884;9.126;2023-01-05T03:52:02;12.50;99.90
843;DHT22;407;48.884;9.126;2023-01-05T03:54:28;12.40;1.00
843;DHT22;407;48.884;9.126;2023-01-05T03:56:54;12.30;1.00
843;DHT22;407;48.884;9.126;2023-01-05T03:59:20;11.50;1.00
843;DHT22;407;48.884;9.126;2023-01-05T04:01:45;12.40;1.00
843;DHT22;407;48.884;9.126;2023-01-05T04:04:11;12.40;1.00
843;DHT22;407;48.884;9.126;2023-01-05T04:06:36;12.40;99.90
843;DHT22;407;48.884;9.126;2023-01-05T04:09:02;12.30;1.00
843;DHT22;407;48.884;9.126;2023-01-05T04:11:28;12.30;99.90
843;DHT22;407;48.884;9.126;2023-01-05T04:13:53;12.30;99.90
843;DHT22;407;48.884;9.126;2023-01-05T04:16:19;12.30;1.00
843;DHT22;407;48.884;9.126;2023-01-05T04:18:45;12.30;1.00
843;DHT22;407;48.884;9.126;2023-01-05T04:21:10;12.30;99.90
843;DHT22;407;48.884;9.126;2023-01-05T04:23:36;12.20;1.00
843;DHT22;407;48.884;9.126;2023-01-05T04:26:02;12.20;1.00
843;DHT22;407;48.884;9.126;2023-01-05T04:28:28;12.20;1.00
843;DHT22;407;48.884;9.126;2023-01-05T04:30:54;12.20;1.00
843;DHT22;407;48.884;9.126;2023-01-05T04:33:21;12.30;99.90
843;DHT22;407;48.884;9.126;2023-01-05T04:35:47;12.20;99.90
843;DHT22;407;48.884;9.126;2023-01-05T04:38:13;12.30;99.90
843;DHT22;407;48.884;9.126;2023-01-05T04:40:38;12.30;14.50
843;DHT22;407;48.884;9.126;2023-01-05T04:43:05;12.30;86.90
843;DHT22;407;48.884;9.126;2023-01-05T04:45:31;12.30;99.90
843;DHT22;407;48.884;9.126;2023-01-05T04:47:56;12.30;99.90
843;DHT22;407;48.884;9.126;2023-01-05T04:50:22;12.20;1.00
843;DHT22;407;48.884;9.126;2023-01-05T04:52:47;12.20;1.00
843;DHT22;407;48.884;9.126;2023-01-05T04:55:13;12.20;1.00
843;DHT22;407;48.884;9.126;2023-01-05T04:57:39;12.10;99.90
843;DHT22;407;48.884;9.126;2023-01-05T05:00:05;12.00;99.90
843;DHT22;407;48.884;9.126;2023-01-05T05:02:31;11.90;1.00
843;DHT22;407;48.884;9.126;2023-01-05T05:04:57;11.80;1.00
843;DHT22;407;48.884;9.126;2023-01-05T05:07:23;11.60;1.00
843;DHT22;407;48.884;9.126;2023-01-05T05:09:48;11.60;1.00
843;DHT22;407;48.884;9.126;2023-01-05T05:12:14;11.60;1.00
843;DHT22;407;48.884;9.126;2023-01-05T05:14:40;11.50;1.00
843;DHT22;407;48.884;9.126;2023-01-05T05:17:05;11.30;1.00
843;DHT22;407;48.884;9.126;2023-01-05T05:19:31;11.30;1.00
843;DHT22;407;48.884;9.126;2023-01-05T05:21:57;11.30;1.00
843;DHT22;407;48.884;9.126;2023-01-05T05:24:22;11.20;1.00
843;DHT22;407;48.884;9.126;2023-01-05T05:26:48;11.10;1.00
843;DHT22;407;48.884;9.126;2023-01-05T05:29:14;11.00;1.00
843;DHT22;407;48.884;9.126;2023-01-05T05:31:39;11.10;1.00
843;DHT22;407;48.884;9.126;2023-01-05T05:34:05;11.00;1.00
843;DHT22;407;48.884;9.126;2023-01-05T05:36:31;11.00;1.00
843;DHT22;407;48.884;9.126;2023-01-05T05:38:57;11.00;1.00
843;DHT22;407;48.884;9.126;2023-01-05T05:41:23;11.00;1.00
843;DHT22;407;48.884;9.126;2023-01-05T05:43:49;10.90;1.00
843;DHT22;407;48.884;9.126;2023-01-05T05:46:15;11.00;1.00
843;DHT22;407;48.884;9.126;2023-01-05T05:48:41;11.00;1.00
843;DHT22;407;48.884;9.126;2023-01-05T05:51:06;10.90;1.00
843;DHT22;407;48.884;9.126;2023-01-05T05:53:32;10.90;1.00
843;DHT22;407;48.884;9.126;2023-01-05T05:55:58;10.90;1.00
843;DHT22;407;48.884;9.126;2023-01-05T05:58:23;10.90;1.00
843;DHT22;407;48.884;9.126;2023-01-05T06:00:49;10.90;1.00
843;DHT22;407;48.884;9.126;2023-01-05T06:03:14;11.00;1.00
843;DHT22;407;48.884;9.126;2023-01-05T06:05:40;10.90;1.00
843;DHT22;407;48.884;9.126;2023-01-05T06:08:06;10.90;1.00
843;DHT22;407;48.884;9.126;2023-01-05T06:10:31;10.90;1.00
843;DHT22;407;48.884;9.126;2023-01-05T06:12:57;10.90;99.90
843;DHT22;407;48.884;9.126;2023-01-05T06:15:23;10.90;1.00
843;DHT22;407;48.884;9.126;2023-01-05T06:17:48;10.90;1.00
843;DHT22;407;48.884;9.126;2023-01-05T06:20:15;10.90;99.90
843;DHT22;407;48.884;9.126;2023-01-05T06:22:41;10.90;1.00
843;DHT22;407;48.884;9.126;2023-01-05T06:25:08;10.80;1.00
843;DHT22;407;48.884;9.126;2023-01-05T06:27:34;10.90;1.00
843;DHT22;407;48.884;9.126;2023-01-05T06:30:00;10.90;1.00
843;DHT22;407;48.884;9.126;2023-01-05T06:32:25;10.80;1.00
843;DHT22;407;48.884;9.126;2023-01-05T06:34:51;10.80;1.00
843;DHT22;407;48.884;9.126;2023-01-05T06:37:17;10.80;99.90
843;DHT22;407;48.884;9.126;2023-01-05T06:39:42;10.90;1.00
843;DHT22;407;48.884;9.126;2023-01-05T06:42:08;10.90;1.00
843;DHT22;407;48.884;9.126;2023-01-05T06:44:34;11.00;1.00
843;DHT22;407;48.884;9.126;2023-01-05T06:46:59;11.10;99.90
843;DHT22;407;48.884;9.126;2023-01-05T06:49:25;11.00;99.90
843;DHT22;407;48.884;9.126;2023-01-05T06:51:51;11.00;1.00
843;DHT22;407;48.884;9.126;2023-01-05T06:54:16;11.00;99.90
843;DHT22;407;48.884;9.126;2023-01-05T06:56:42;10.90;99.90
843;DHT22;407;48.884;9.126;2023-01-05T06:59:09;11.20;99.90
843;DHT22;407;48.884;9.126;2023-01-05T07:01:35;11.30;99.90
843;DHT22;407;48.884;9.126;2023-01-05T07:04:00;11.40;99.90
843;DHT22;407;48.884;9.126;2023-01-05T07:06:26;11.50;23.70
843;DHT22;407;48.884;9.126;2023-01-05T07:08:51;11.50;1.00
843;DHT22;407;48.884;9.126;2023-01-05T07:11:17;11.60;1.00
843;DHT22;407;48.884;9.126;2023-01-05T07:13:46;11.50;1.00
843;DHT22;407;48.884;9.126;2023-01-05T07:16:13;11.40;1.00
843;DHT22;407;48.884;9.126;2023-01-05T07:18:38;11.40;99.90
843;DHT22;407;48.884;9.126;2023-01-05T07:21:04;11.40;1.00
843;DHT22;407;48.884;9.126;2023-01-05T07:23:30;11.30;94.90
843;DHT22;407;48.884;9.126;2023-01-05T07:25:59;11.30;27.30
843;DHT22;407;48.884;9.126;2023-01-05T07:28:24;11.10;99.90
843;DHT22;407;48.884;9.126;2023-01-05T07:30:51;11.10;99.90
843;DHT22;407;48.884;9.126;2023-01-05T07:33:17;11.00;99.90
843;DHT22;407;48.884;9.126;2023-01-05T07:35:42;11.00;99.90
843;DHT22;407;48.884;9.126;2023-01-05T07:38:08;11.00;99.90
843;DHT22;407;48.884;9.126;2023-01-05T07:40:34;10.90;99.90
843;DHT22;407;48.884;9.126;2023-01-05T07:43:00;10.90;99.90
843;DHT22;407;48.884;9.126;2023-01-05T07:45:26;11.00;99.90
843;DHT22;407;48.884;9.126;2023-01-05T07:47:51;10.90;99.90
843;DHT22;407;48.884;9.126;2023-01-05T07:50:17;10.90;99.90
843;DHT22;407;48.884;9.126;2023-01-05T07:52:42;10.90;99.90
843;DHT22;407;48.884;9.126;2023-01-05T07:55:08;11.00;99.90
843;DHT22;407;48.884;9.126;2023-01-05T07:57:34;11.00;99.90
843;DHT22;407;48.884;9.126;2023-01-05T08:00:00;11.00;99.90
843;DHT22;407;48.884;9.126;2023-01-05T08:02:25;11.00;99.90
843;DHT22;407;48.884;9.126;2023-01-05T08:04:52;11.00;99.90
843;DHT22;407;48.884;9.126;2023-01-05T08:07:18;11.10;1.00
843;DHT22;407;48.884;9.126;2023-01-05T08:09:43;11.10;99.90
843;DHT22;407;48.884;9.126;2023-01-05T08:12:35;11.10;1.00
843;DHT22;407;48.884;9.126;2023-01-05T08:15:21;11.10;1.00
843;DHT22;407;48.884;9.126;2023-01-05T08:17:46;11.20;99.90
843;DHT22;407;48.884;9.126;2023-01-05T08:20:12;11.20;99.90
843;DHT22;407;48.884;9.126;2023-01-05T08:22:37;11.20;1.00
843;DHT22;407;48.884;9.126;2023-01-05T08:25:03;11.20;99.90
843;DHT22;407;48.884;9.126;2023-01-05T08:27:29;11.20;99.90
843;DHT22;407;48.884;9.126;2023-01-05T08:29:55;11.30;1.00
843;DHT22;407;48.884;9.126;2023-01-05T08:32:20;11.30;1.00
843;DHT22;407;48.884;9.126;2023-01-05T08:34:46;11.20;1.00
843;DHT22;407;48.884;9.126;2023-01-05T08:37:11;11.10;1.00
843;DHT22;407;48.884;9.126;2023-01-05T08:39:37;11.10;1.00
843;DHT22;407;48.884;9.126;2023-01-05T08:42:02;11.10;99.90
843;DHT22;407;48.884;9.126;2023-01-05T08:44:28;11.20;1.00
843;DHT22;407;48.884;9.126;2023-01-05T08:46:54;11.20;99.90
843;DHT22;407;48.884;9.126;2023-01-05T08:49:19;11.10;99.90
843;DHT22;407;48.884;9.126;2023-01-05T08:51:45;11.10;1.00
843;DHT22;407;48.884;9.126;2023-01-05T08:54:10;11.10;1.00
843;DHT22;407;48.884;9.126;2023-01-05T08:56:36;11.20;1.00
843;DHT22;407;48.884;9.126;2023-01-05T08:59:02;11.10;1.00
843;DHT22;407;48.884;9.126;2023-01-05T09:01:28;11.20;23.80
843;DHT22;407;48.884;9.126;2023-01-05T09:03:54;11.10;99.90
843;DHT22;407;48.884;9.126;2023-01-05T09:06:19;11.10;1.00
843;DHT22;407;48.884;9.126;2023-01-05T09:08:45;11.10;1.00
843;DHT22;407;48.884;9.126;2023-01-05T09:11:20;11.20;1.00
843;DHT22;407;48.884;9.126;2023-01-05T09:13:52;11.20;5.30
843;DHT22;407;48.884;9.126;2023-01-05T09:16:20;11.10;1.00
843;DHT22;407;48.884;9.126;2023-01-05T09:18:47;11.10;99.90
843;DHT22;407;48.884;9.126;2023-01-05T09:21:13;11.20;99.90
843;DHT22;407;48.884;9.126;2023-01-05T09:23:39;11.10;99.90
843;DHT22;407;48.884;9.126;2023-01-05T09:26:06;11.00;1.00
843;DHT22;407;48.884;9.126;2023-01-05T09:28:32;11.10;1.00
843;DHT22;407;48.884;9.126;2023-01-05T09:31:06;11.10;99.90
843;DHT22;407;48.884;9.126;2023-01-05T09:33:32;11.30;99.90
843;DHT22;407;48.884;9.126;2023-01-05T09:35:57;11.40;1.00
843;DHT22;407;48.884;9.126;2023-01-05T09:38:23;11.30;99.90
843;DHT22;407;48.884;9.126;2023-01-05T09:40:52;11.20;99.90
843;DHT22;407;48.884;9.126;2023-01-05T09:43:27;11.20;99.90
843;DHT22;407;48.884;9.126;2023-01-05T09:45:55;11.20;99.90
843;DHT22;407;48.884;9.126;2023-01-05T09:48:24;11.20;99.90
843;DHT22;407;48.884;9.126;2023-01-05T09:50:51;11.10;99.90
843;DHT22;407;48.884;9.126;2023-01-05T09:53:22;11.20;99.90
843;DHT22;407;48.884;9.126;2023-01-05T09:55:50;11.10;99.90
843;DHT22;407;48.884;9.126;2023-01-05T09:58:20;11.10;99.90
843;DHT22;407;48.884;9.126;2023-01-05T10:01:16;11.10;99.90
843;DHT22;407;48.884;9.126;2023-01-05T10:03:56;11.10;99.90
843;DHT22;407;48.884;9.126;2023-01-05T10:06:26;11.10;99.90
843;DHT22;407;48.884;9.126;2023-01-05T10:08:54;11.00;68.50
843;DHT22;407;48.884;9.126;2023-01-05T10:11:26;11.00;99.90
843;DHT22;407;48.884;9.126;2023-01-05T10:16:52;11.20;99.90
843;DHT22;407;48.884;9.126;2023-01-05T10:19:19;11.30;57.10
843;DHT22;407;48.884;9.126;2023-01-05T10:25:25;11.20;16.90
843;DHT22;407;48.884;9.126;2023-01-05T10:30:44;11.30;1.00
843;DHT22;407;48.884;9.126;2023-01-05T10:33:40;11.20;1.00
843;DHT22;407;48.884;9.126;2023-01-05T10:39:03;11.50;1.00
843;DHT22;407;48.884;9.126;2023-01-05T10:41:39;11.40;1.00
843;DHT22;407;48.884;9.126;2023-01-05T10:47:10;11.40;1.00
843;DHT22;407;48.884;9.126;2023-01-05T10:49:37;11.50;1.00
843;DHT22;407;48.884;9.126;2023-01-05T10:52:07;11.40;1.00
843;DHT22;407;48.884;9.126;2023-01-05T10:54:52;11.40;1.00
843;DHT22;407;48.884;9.126;2023-01-05T10:57:32;11.40;1.00
843;DHT22;407;48.884;9.126;2023-01-05T11:00:06;11.50;1.00
843;DHT22;407;48.884;9.126;2023-01-05T11:02:37;11.50;1.00
843;DHT22;407;48.884;9.126;2023-01-05T11:07:54;11.60;1.00
843;DHT22;407;48.884;9.126;2023-01-05T11:10:33;11.60;1.00
843;DHT22;407;48.884;9.126;2023-01-05T11:15:29;11.60;1.00
843;DHT22;407;48.884;9.126;2023-01-05T11:17:56;11.60;99.90
843;DHT22;407;48.884;9.126;2023-01-05T11:20:22;11.60;99.90
843;DHT22;407;48.884;9.126;2023-01-05T11:22:48;11.60;99.90
843;DHT22;407;48.884;9.126;2023-01-05T11:25:23;11.50;99.90
843;DHT22;407;48.884;9.126;2023-01-05T11:28:09;11.30;99.90
843;DHT22;407;48.884;9.126;2023-01-05T11:30:37;11.60;99.90
843;DHT22;407;48.884;9.126;2023-01-05T11:33:33;11.60;99.90
843;DHT22;407;48.884;9.126;2023-01-05T11:36:00;11.60;99.90
843;DHT22;407;48.884;9.126;2023-01-05T11:38:29;11.70;99.90
843;DHT22;407;48.884;9.126;2023-01-05T11:40:56;11.80;99.90
843;DHT22;407;48.884;9.126;2023-01-05T11:43:24;11.70;99.90
843;DHT22;407;48.884;9.126;2023-01-05T11:45:53;11.60;99.90
843;DHT22;407;48.884;9.126;2023-01-05T11:48:25;11.70;99.90
843;DHT22;407;48.884;9.126;2023-01-05T11:50:54;11.80;99.90
843;DHT22;407;48.884;9.126;2023-01-05T11:56:16;11.80;99.90
843;DHT22;407;48.884;9.126;2023-01-05T11:58:44;11.70;99.90
843;DHT22;407;48.884;9.126;2023-01-05T12:04:16;11.80;99.90
843;DHT22;407;48.884;9.126;2023-01-05T12:09:38;11.60;99.90
843;DHT22;407;48.884;9.126;2023-01-05T12:21:08;11.50;99.90
843;DHT22;407;48.884;9.126;2023-01-05T12:26:25;11.50;99.90
843;DHT22;407;48.884;9.126;2023-01-05T12:29:19;11.50;99.90
843;DHT22;407;48.884;9.126;2023-01-05T12:32:16;11.50;99.90
843;DHT22;407;48.884;9.126;2023-01-05T12:35:07;11.30;99.90
843;DHT22;407;48.884;9.126;2023-01-05T12:40:31;11.40;99.90
843;DHT22;407;48.884;9.126;2023-01-05T12:43:06;11.40;99.90
843;DHT22;407;48.884;9.126;2023-01-05T12:56:08;11.40;99.90
843;DHT22;407;48.884;9.126;2023-01-05T12:58:38;11.40;99.90
843;DHT22;407;48.884;9.126;2023-01-05T13:01:12;11.40;99.90
843;DHT22;407;48.884;9.126;2023-01-05T13:03:46;11.40;99.90
843;DHT22;407;48.884;9.126;2023-01-05T13:06:17;11.30;99.90
843;DHT22;407;48.884;9.126;2023-01-05T13:08:57;11.40;99.90
843;DHT22;407;48.884;9.126;2023-01-05T13:11:34;11.40;99.90
843;DHT22;407;48.884;9.126;2023-01-05T13:14:06;11.50;99.90
843;DHT22;407;48.884;9.126;2023-01-05T13:16:40;11.50;99.90
843;DHT22;407;48.884;9.126;2023-01-05T13:19:30;11.40;99.90
843;DHT22;407;48.884;9.126;2023-01-05T13:22:02;11.40;99.90
843;DHT22;407;48.884;9.126;2023-01-05T13:24:52;11.40;99.90
843;DHT22;407;48.884;9.126;2023-01-05T13:27:19;11.50;99.90
843;DHT22;407;48.884;9.126;2023-01-05T13:29:49;11.50;99.90
843;DHT22;407;48.884;9.126;2023-01-05T13:32:31;11.50;99.90
843;DHT22;407;48.884;9.126;2023-01-05T13:35:38;11.40;99.90
843;DHT22;407;48.884;9.126;2023-01-05T13:43:54;11.40;99.90
843;DHT22;407;48.884;9.126;2023-01-05T13:49:42;11.40;99.90
843;DHT22;407;48.884;9.126;2023-01-05T13:55:02;11.50;99.90
843;DHT22;407;48.884;9.126;2023-01-05T13:57:36;11.60;99.90
843;DHT22;407;48.884;9.126;2023-01-05T14:02:43;11.60;99.90
843;DHT22;407;48.884;9.126;2023-01-05T14:05:25;11.60;99.90
843;DHT22;407;48.884;9.126;2023-01-05T14:07:54;11.70;99.90
843;DHT22;407;48.884;9.126;2023-01-05T14:10:32;11.60;99.90
843;DHT22;407;48.884;9.126;2023-01-05T14:12:58;11.60;99.90
843;DHT22;407;48.884;9.126;2023-01-05T14:15:40;11.50;99.90
843;DHT22;407;48.884;9.126;2023-01-05T14:18:12;11.50;99.90
843;DHT22;407;48.884;9.126;2023-01-05T14:20:57;11.50;99.90
843;DHT22;407;48.884;9.126;2023-01-05T14:25:56;11.60;99.90
843;DHT22;407;48.884;9.126;2023-01-05T14:28:38;11.60;99.90
843;DHT22;407;48.884;9.126;2023-01-05T14:33:52;11.50;99.90
843;DHT22;407;48.884;9.126;2023-01-05T14:36:29;11.40;99.90
843;DHT22;407;48.884;9.126;2023-01-05T14:38:58;11.40;99.90
843;DHT22;407;48.884;9.126;2023-01-05T14:41:27;11.50;99.90
843;DHT22;407;48.884;9.126;2023-01-05T14:44:03;11.50;99.90
843;DHT22;407;48.884;9.126;2023-01-05T14:46:44;11.70;99.90
843;DHT22;407;48.884;9.126;2023-01-05T14:49:19;11.60;99.90
843;DHT22;407;48.884;9.126;2023-01-05T14:51:55;11.50;99.90
843;DHT22;407;48.884;9.126;2023-01-05T14:59:56;11.50;99.90
843;DHT22;407;48.884;9.126;2023-01-05T15:02:31;11.50;99.90
843;DHT22;407;48.884;9.126;2023-01-05T15:05:05;11.50;99.90
843;DHT22;407;48.884;9.126;2023-01-05T15:07:52;11.50;99.90
843;DHT22;407;48.884;9.126;2023-01-05T15:10:50;11.50;99.90
843;DHT22;407;48.884;9.126;2023-01-05T15:13:52;11.70;99.90
843;DHT22;407;48.884;9.126;2023-01-05T15:17:02;11.80;99.90
843;DHT22;407;48.884;9.126;2023-01-05T15:20:00;11.70;99.90
843;DHT22;407;48.884;9.126;2023-01-05T15:22:54;11.50;99.90
843;DHT22;407;48.884;9.126;2023-01-05T15:28:15;11.50;99.90
843;DHT22;407;48.884;9.126;2023-01-05T15:31:06;11.60;99.90
843;DHT22;407;48.884;9.126;2023-01-05T15:33:53;11.60;99.90
843;DHT22;407;48.884;9.126;2023-01-05T15:36:29;11.60;99.90
843;DHT22;407;48.884;9.126;2023-01-05T15:38:56;11.60;99.90
843;DHT22;407;48.884;9.126;2023-01-05T15:41:23;11.50;99.90
843;DHT22;407;48.884;9.126;2023-01-05T15:43:51;11.50;99.90
843;DHT22;407;48.884;9.126;2023-01-05T15:46:22;11.50;99.90
843;DHT22;407;48.884;9.126;2023-01-05T15:48:53;11.60;99.90
843;DHT22;407;48.884;9.126;2023-01-05T15:51:27;11.60;99.90
843;DHT22;407;48.884;9.126;2023-01-05T15:53:59;11.60;99.90
843;DHT22;407;48.884;9.126;2023-01-05T15:56:33;11.50;99.90
843;DHT22;407;48.884;9.126;2023-01-05T15:59:01;11.50;99.90
843;DHT22;407;48.884;9.126;2023-01-05T16:01:27;11.40;99.90
843;DHT22;407;48.884;9.126;2023-01-05T16:04:05;11.50;99.90
843;DHT22;407;48.884;9.126;2023-01-05T16:06:31;11.60;99.90
843;DHT22;407;48.884;9.126;2023-01-05T16:09:01;11.60;99.90
843;DHT22;407;48.884;9.126;2023-01-05T16:11:41;11.40;99.90
843;DHT22;407;48.884;9.126;2023-01-05T16:14:25;11.40;99.90
843;DHT22;407;48.884;9.126;2023-01-05T16:17:01;11.60;99.90
843;DHT22;407;48.884;9.126;2023-01-05T16:19:35;11.60;99.90
843;DHT22;407;48.884;9.126;2023-01-05T16:22:11;11.40;99.90
843;DHT22;407;48.884;9.126;2023-01-05T16:27:24;12.80;99.90
843;DHT22;407;48.884;9.126;2023-01-05T16:29:50;11.60;99.90
843;DHT22;407;48.884;9.126;2023-01-05T16:32:32;11.60;99.90
843;DHT22;407;48.884;9.126;2023-01-05T16:38:03;11.70;99.90
843;DHT22;407;48.884;9.126;2023-01-05T16:40:29;11.80;99.90
843;DHT22;407;48.884;9.126;2023-01-05T16:42:54;11.70;99.90
843;DHT22;407;48.884;9.126;2023-01-05T16:45:25;11.80;99.90
843;DHT22;407;48.884;9.126;2023-01-05T16:47:51;11.90;99.90
843;DHT22;407;48.884;9.126;2023-01-05T16:53:13;12.10;99.90
843;DHT22;407;48.884;9.126;2023-01-05T16:55:39;11.90;99.90
843;DHT22;407;48.884;9.126;2023-01-05T17:03:42;11.60;99.90
843;DHT22;407;48.884;9.126;2023-01-05T17:06:29;13.00;99.90
843;DHT22;407;48.884;9.126;2023-01-05T17:08:58;11.50;99.90
843;DHT22;407;48.884;9.126;2023-01-05T17:11:33;11.40;99.90
843;DHT22;407;48.884;9.126;2023-01-05T17:13:59;11.40;99.90
843;DHT22;407;48.884;9.126;2023-01-05T17:16:26;11.40;99.90
843;DHT22;407;48.884;9.126;2023-01-05T17:18:52;11.40;99.90
843;DHT22;407;48.884;9.126;2023-01-05T17:21:20;11.40;99.90
843;DHT22;407;48.884;9.126;2023-01-05T17:23:53;11.40;99.90
843;DHT22;407;48.884;9.126;2023-01-05T17:26:43;11.40;99.90
843;DHT22;407;48.884;9.126;2023-01-05T17:29:13;11.40;99.90
843;DHT22;407;48.884;9.126;2023-01-05T17:31:41;11.30;99.90
843;DHT22;407;48.884;9.126;2023-01-05T17:34:07;11.40;99.90
843;DHT22;407;48.884;9.126;2023-01-05T17:36:33;11.40;99.90
843;DHT22;407;48.884;9.126;2023-01-05T17:38:59;11.30;99.90
843;DHT22;407;48.884;9.126;2023-01-05T17:41:25;11.30;99.90
843;DHT22;407;48.884;9.126;2023-01-05T17:43:50;11.20;99.90
843;DHT22;407;48.884;9.126;2023-01-05T17:46:19;11.10;99.90
843;DHT22;407;48.884;9.126;2023-01-05T17:48:45;11.00;1.00
843;DHT22;407;48.884;9.126;2023-01-05T17:51:11;10.90;1.00
843;DHT22;407;48.884;9.126;2023-01-05T17:53:36;10.90;1.00
843;DHT22;407;48.884;9.126;2023-01-05T17:56:02;10.80;1.00
843;DHT22;407;48.884;9.126;2023-01-05T17:58:28;10.80;1.00
843;DHT22;407;48.884;9.126;2023-01-05T18:00:54;10.70;50.40
843;DHT22;407;48.884;9.126;2023-01-05T18:03:19;10.70;99.90
843;DHT22;407;48.884;9.126;2023-01-05T18:05:49;10.60;99.90
843;DHT22;407;48.884;9.126;2023-01-05T18:08:16;10.60;1.00
843;DHT22;407;48.884;9.126;2023-01-05T18:10:41;10.60;1.00
843;DHT22;407;48.884;9.126;2023-01-05T18:13:08;10.60;1.00
843;DHT22;407;48.884;9.126;2023-01-05T18:15:39;10.50;89.70
843;DHT22;407;48.884;9.126;2023-01-05T18:18:05;10.30;1.00
843;DHT22;407;48.884;9.126;2023-01-05T18:20:30;10.20;99.90
843;DHT22;407;48.884;9.126;2023-01-05T18:22:56;10.20;1.00
843;DHT22;407;48.884;9.126;2023-01-05T18:25:22;10.20;1.00
843;DHT22;407;48.884;9.126;2023-01-05T18:27:48;10.20;99.90
843;DHT22;407;48.884;9.126;2023-01-05T18:30:13;10.10;99.90
843;DHT22;407;48.884;9.126;2023-01-05T18:32:39;10.10;1.00
843;DHT22;407;48.884;9.126;2023-01-05T18:35:06;10.10;1.00
843;DHT22;407;48.884;9.126;2023-01-05T18:37:32;10.10;1.00
843;DHT22;407;48.884;9.126;2023-01-05T18:39:57;10.10;1.00
843;DHT22;407;48.884;9.126;2023-01-05T18:42:23;10.10;1.00
843;DHT22;407;48.884;9.126;2023-01-05T18:44:49;10.10;1.00
843;DHT22;407;48.884;9.126;2023-01-05T18:47:15;10.00;1.00
843;DHT22;407;48.884;9.126;2023-01-05T18:49:40;9.90;99.90
843;DHT22;407;48.884;9.126;2023-01-05T18:52:06;9.90;1.00
843;DHT22;407;48.884;9.126;2023-01-05T18:54:32;9.80;99.90
843;DHT22;407;48.884;9.126;2023-01-05T18:56:57;9.80;99.90
843;DHT22;407;48.884;9.126;2023-01-05T18:59:23;9.70;99.90
843;DHT22;407;48.884;9.126;2023-01-05T19:01:49;9.60;1.00
843;DHT22;407;48.884;9.126;2023-01-05T19:04:15;9.60;49.30